Time;durP1;ratioP1;P1;durP2;ratioP2;P2;SDS_P1;SDS_P2;PMS_P1;PMS_P2;Temp;Humidity;BMP_temperature;BMP_pressure;BME280_temperature;BME280_humidity;BME280_pressure;Samples;Min_cycle;Max_cycle;Signal;HPM_P1;HPM_P2
2021/07/14 00:00:54;;;;;;;6.32;2.80;;;;;;;;;;5097290;28;20032;-83
2021/07/14 00:03:20;;;;;;;6.47;2.60;;;;;;;;;;5096805;28;20036;-83
2021/07/14 00:05:46;;;;;;;4.47;2.33;;;;;;;;;;5095512;28;20130;-83
2021/07/14 00:08:11;;;;;;;4.25;2.13;;;;;;;;;;5097057;28;20063;-83
2021/07/14 00:10:37;;;;;;;9.80;2.08;;;;;;;;;;5095365;28;20028;-83
2021/07/14 00:13:22;;;;;;;2.65;1.70;;;;;;;;;;5096345;28;20032;-83
2021/07/14 00:23:51;;;;;;;4.97;1.63;;;;;;;;;;5095378;28;20040;-84
2021/07/14 00:26:17;;;;;;;2.92;1.50;;;;;;;;;;5096815;28;20028;-84
2021/07/14 00:28:48;;;;;;;1.63;1.40;;;;;;;;;;5096868;28;20028;-84
2021/07/14 00:31:15;;;;;;;2.15;1.45;;;;;;;;;;5097541;28;20090;-84
2021/07/14 00:33:41;;;;;;;3.33;1.67;;;;;;;;;;5096183;28;20095;-85
2021/07/14 00:36:07;;;;;;;3.85;1.60;;;;;;;;;;5097754;28;20453;-83
2021/07/14 00:38:33;;;;;;;2.97;1.17;;;;;;;;;;5097905;28;20039;-84
2021/07/14 00:40:58;;;;;;;2.10;1.30;;;;;;;;;;5096321;28;20032;-83
2021/07/14 00:43:24;;;;;;;2.03;1.40;;;;;;;;;;5095825;28;20068;-83
2021/07/14 00:45:49;;;;;;;4.47;1.30;;;;;;;;;;5095909;28;20046;-83
2021/07/14 00:48:21;;;;;;;1.27;1.17;;;;;;;;;;5097273;28;20082;-83
2021/07/14 00:50:46;;;;;;;4.75;1.52;;;;;;;;;;5097333;28;20040;-82
2021/07/14 00:53:11;;;;;;;5.28;1.45;;;;;;;;;;5095994;28;20089;-81
2021/07/14 00:55:37;;;;;;;1.83;1.48;;;;;;;;;;5105001;28;20402;-81
2021/07/14 00:58:02;;;;;;;5.47;1.40;;;;;;;;;;5115382;28;20035;-82
2021/07/14 01:00:28;;;;;;;3.58;1.35;;;;;;;;;;5116372;28;20050;-82
2021/07/14 01:02:53;;;;;;;1.77;1.33;;;;;;;;;;5115979;27;20031;-82
2021/07/14 01:05:24;;;;;;;5.97;1.55;;;;;;;;;;5116307;27;20410;-83
2021/07/14 01:08:08;;;;;;;3.08;1.50;;;;;;;;;;5116234;28;20031;-82
2021/07/14 01:11:08;;;;;;;3.42;1.40;;;;;;;;;;5114680;28;20088;-82
2021/07/14 01:13:42;;;;;;;10.60;1.95;;;;;;;;;;5083293;28;20048;-83
2021/07/14 01:16:14;;;;;;;2.20;1.40;;;;;;;;;;5111126;28;20040;-83
2021/07/14 01:19:00;;;;;;;3.50;1.20;;;;;;;;;;5093665;28;20104;-84
2021/07/14 01:21:41;;;;;;;4.90;1.23;;;;;;;;;;5095577;28;20039;-83
2021/07/14 01:24:29;;;;;;;3.33;1.08;;;;;;;;;;5094331;28;20119;-84
2021/07/14 01:27:34;;;;;;;9.05;1.85;;;;;;;;;;5094195;27;20444;-84
2021/07/14 01:30:01;;;;;;;3.17;1.40;;;;;;;;;;5064326;28;20052;-84
2021/07/14 01:32:30;;;;;;;2.70;1.40;;;;;;;;;;5094141;28;20118;-84
2021/07/14 01:35:03;;;;;;;5.82;1.58;;;;;;;;;;5094033;28;20043;-84
2021/07/14 01:37:30;;;;;;;2.58;1.50;;;;;;;;;;5094204;28;20384;-84
2021/07/14 01:39:58;;;;;;;1.80;1.35;;;;;;;;;;5093909;28;20028;-84
2021/07/14 01:42:26;;;;;;;4.03;1.35;;;;;;;;;;5093700;28;20044;-84
2021/07/14 01:44:55;;;;;;;4.75;1.52;;;;;;;;;;5093317;28;20403;-84
2021/07/14 01:47:22;;;;;;;8.57;1.52;;;;;;;;;;5098959;28;20043;-84
2021/07/14 01:49:49;;;;;;;3.80;1.77;;;;;;;;;;5100858;28;20040;-84
2021/07/14 01:52:17;;;;;;;1.38;1.27;;;;;;;;;;5099308;28;20390;-84
2021/07/14 01:54:43;;;;;;;3.42;1.60;;;;;;;;;;5099308;28;20063;-83
2021/07/14 01:57:10;;;;;;;5.57;1.40;;;;;;;;;;5118398;28;20426;-83
2021/07/14 01:59:38;;;;;;;4.40;1.48;;;;;;;;;;5101455;28;20035;-84
2021/07/14 02:02:05;;;;;;;5.88;1.45;;;;;;;;;;5115339;28;20035;-84
2021/07/14 02:04:33;;;;;;;2.28;1.20;;;;;;;;;;5114967;28;20036;-84
2021/07/14 02:07:03;;;;;;;5.18;1.60;;;;;;;;;;5107178;28;20102;-84
2021/07/14 02:09:29;;;;;;;4.20;1.50;;;;;;;;;;5093184;28;20460;-83
2021/07/14 02:11:56;;;;;;;7.35;1.73;;;;;;;;;;5094336;28;20115;-83
2021/07/14 02:14:30;;;;;;;1.92;1.30;;;;;;;;;;5094954;28;20499;-84
2021/07/14 02:16:59;;;;;;;6.70;1.50;;;;;;;;;;5093567;28;20567;-83
2021/07/14 02:19:26;;;;;;;3.38;1.38;;;;;;;;;;5094638;28;20024;-84
2021/07/14 02:21:51;;;;;;;12.07;1.58;;;;;;;;;;5093831;28;20472;-83
2021/07/14 02:24:17;;;;;;;1.95;1.38;;;;;;;;;;5081332;27;20039;-86
2021/07/14 02:26:43;;;;;;;5.00;1.80;;;;;;;;;;5135802;27;20081;-84
2021/07/14 02:29:10;;;;;;;8.85;1.50;;;;;;;;;;5136021;27;20092;-84
2021/07/14 02:31:35;;;;;;;9.48;1.52;;;;;;;;;;5137735;27;20489;-84
2021/07/14 02:34:01;;;;;;;5.43;1.50;;;;;;;;;;5137825;27;20227;-84
2021/07/14 02:36:31;;;;;;;6.47;1.50;;;;;;;;;;5140461;27;20039;-84
2021/07/14 02:39:01;;;;;;;8.18;1.83;;;;;;;;;;5138730;27;20035;-84
2021/07/14 02:41:55;;;;;;;8.15;1.85;;;;;;;;;;5139276;27;20417;-84
2021/07/14 02:44:24;;;;;;;2.15;1.50;;;;;;;;;;5133799;27;20043;-85
2021/07/14 02:46:51;;;;;;;6.85;2.42;;;;;;;;;;5137210;27;20072;-85
2021/07/14 02:49:22;;;;;;;7.18;2.22;;;;;;;;;;5117805;27;20027;-83
2021/07/14 02:51:50;;;;;;;2.33;1.70;;;;;;;;;;5119504;28;20125;-84
2021/07/14 02:54:20;;;;;;;4.90;1.95;;;;;;;;;;5134355;28;20499;-82
2021/07/14 02:56:50;;;;;;;4.72;1.75;;;;;;;;;;5117098;28;20059;-82
2021/07/14 02:59:19;;;;;;;2.55;1.60;;;;;;;;;;5128048;28;20027;-82
2021/07/14 03:01:46;;;;;;;5.70;1.60;;;;;;;;;;5136837;27;20046;-82
2021/07/14 03:04:12;;;;;;;4.18;1.65;;;;;;;;;;5132458;27;20598;-83
2021/07/14 03:06:39;;;;;;;8.00;1.98;;;;;;;;;;5135490;27;20042;-84
2021/07/14 03:09:06;;;;;;;7.10;1.90;;;;;;;;;;5137283;27;20054;-83
2021/07/14 03:11:38;;;;;;;7.35;1.60;;;;;;;;;;5137120;27;20039;-84
2021/07/14 03:14:05;;;;;;;11.45;1.67;;;;;;;;;;5137284;27;20470;-83
2021/07/14 03:16:32;;;;;;;7.18;1.45;;;;;;;;;;5138366;27;20113;-83
2021/07/14 03:18:59;;;;;;;8.93;2.65;;;;;;;;;;5137288;27;20092;-83
2021/07/14 03:21:29;;;;;;;4.88;2.15;;;;;;;;;;5119975;27;20035;-83
2021/07/14 03:23:54;;;;;;;7.25;2.00;;;;;;;;;;5137939;27;20134;-83
2021/07/14 03:26:20;;;;;;;4.95;1.80;;;;;;;;;;5138150;27;20503;-84
2021/07/14 03:28:46;;;;;;;5.95;2.55;;;;;;;;;;5131284;27;20023;-83
2021/07/14 03:31:13;;;;;;;4.10;2.42;;;;;;;;;;5116561;28;20486;-84
2021/07/14 03:33:38;;;;;;;4.22;2.10;;;;;;;;;;5117521;28;20478;-84
2021/07/14 03:36:05;;;;;;;3.03;1.85;;;;;;;;;;5116151;28;20106;-83
2021/07/14 03:38:32;;;;;;;4.72;2.10;;;;;;;;;;5117412;28;20034;-83
2021/07/14 03:40:58;;;;;;;9.07;2.40;;;;;;;;;;5117589;28;20032;-83
2021/07/14 03:43:25;;;;;;;7.28;2.10;;;;;;;;;;5116491;28;20063;-84
2021/07/14 03:45:52;;;;;;;9.40;2.25;;;;;;;;;;5117341;28;20031;-83
2021/07/14 03:48:19;;;;;;;4.95;2.30;;;;;;;;;;5117496;28;20067;-83
2021/07/14 03:50:55;;;;;;;4.25;2.45;;;;;;;;;;5116287;28;20024;-83
2021/07/14 03:53:23;;;;;;;5.38;2.10;;;;;;;;;;5099066;28;20032;-84
2021/07/14 03:55:49;;;;;;;9.38;2.03;;;;;;;;;;5115664;28;20486;-84
2021/07/14 03:58:18;;;;;;;4.57;2.30;;;;;;;;;;5117383;28;20035;-84
2021/07/14 04:00:44;;;;;;;10.82;2.08;;;;;;;;;;5117155;28;20551;-84
2021/07/14 04:03:10;;;;;;;8.95;2.70;;;;;;;;;;5115712;28;20032;-84
2021/07/14 04:05:44;;;;;;;5.60;2.13;;;;;;;;;;5098575;28;20054;-84
2021/07/14 04:08:20;;;;;;;5.15;2.33;;;;;;;;;;5117327;28;20035;-84
2021/07/14 04:10:46;;;;;;;12.27;2.60;;;;;;;;;;5116933;28;20040;-84
2021/07/14 04:13:11;;;;;;;5.70;2.45;;;;;;;;;;5116781;28;20189;-84
2021/07/14 04:15:37;;;;;;;5.65;2.20;;;;;;;;;;5115603;28;20065;-84
2021/07/14 04:18:05;;;;;;;11.85;3.22;;;;;;;;;;5114924;28;20486;-84
2021/07/14 04:20:31;;;;;;;7.95;2.42;;;;;;;;;;5116810;28;20071;-84
2021/07/14 04:22:57;;;;;;;10.20;2.30;;;;;;;;;;5115521;28;20497;-84
2021/07/14 04:25:22;;;;;;;6.22;2.63;;;;;;;;;;5116208;28;20103;-83
2021/07/14 04:27:48;;;;;;;4.55;2.38;;;;;;;;;;5116521;28;20536;-80
2021/07/14 04:30:14;;;;;;;4.05;2.50;;;;;;;;;;5117185;28;20572;-80
2021/07/14 04:32:39;;;;;;;11.38;4.25;;;;;;;;;;5116426;28;20039;-80
2021/07/14 04:35:05;;;;;;;5.88;2.67;;;;;;;;;;5116709;28;20076;-80
2021/07/14 04:37:30;;;;;;;7.30;3.00;;;;;;;;;;5116388;28;20039;-80
2021/07/14 04:39:56;;;;;;;7.68;2.90;;;;;;;;;;5117307;28;20024;-80
2021/07/14 04:42:21;;;;;;;5.85;3.25;;;;;;;;;;5117654;28;20051;-80
2021/07/14 04:44:51;;;;;;;6.03;2.85;;;;;;;;;;5115543;28;20036;-80
2021/07/14 04:47:18;;;;;;;4.50;2.55;;;;;;;;;;5116939;28;20039;-80
2021/07/14 04:49:43;;;;;;;4.50;2.60;;;;;;;;;;5116625;28;20031;-80
2021/07/14 04:52:09;;;;;;;5.75;2.70;;;;;;;;;;5116590;28;20042;-80
2021/07/14 04:54:35;;;;;;;8.57;2.90;;;;;;;;;;5112686;28;20475;-80
2021/07/14 04:57:01;;;;;;;9.70;3.20;;;;;;;;;;5096031;28;20114;-80
2021/07/14 04:59:26;;;;;;;9.20;2.30;;;;;;;;;;5104619;28;20118;-80
2021/07/14 05:01:51;;;;;;;7.13;2.83;;;;;;;;;;5116428;28;20043;-80
2021/07/14 05:04:17;;;;;;;10.35;2.35;;;;;;;;;;5115831;28;20058;-80
2021/07/14 05:06:42;;;;;;;12.55;3.60;;;;;;;;;;5116675;28;20039;-80
2021/07/14 05:09:08;;;;;;;8.43;2.70;;;;;;;;;;5116622;28;20076;-80
2021/07/14 05:11:34;;;;;;;10.32;2.40;;;;;;;;;;5116714;28;20028;-81
2021/07/14 05:13:59;;;;;;;10.10;4.20;;;;;;;;;;5115262;28;20026;-81
2021/07/14 05:16:24;;;;;;;7.72;2.03;;;;;;;;;;5116761;28;20447;-81
2021/07/14 05:18:50;;;;;;;15.65;3.00;;;;;;;;;;5109949;27;20036;-81
2021/07/14 05:21:15;;;;;;;11.75;2.00;;;;;;;;;;5093798;28;20059;-80
2021/07/14 05:23:40;;;;;;;8.85;2.65;;;;;;;;;;5077323;28;20411;-80
2021/07/14 05:26:06;;;;;;;4.15;2.17;;;;;;;;;;5095138;27;20028;-80
2021/07/14 05:28:31;;;;;;;3.72;1.98;;;;;;;;;;5093437;28;20185;-80
2021/07/14 05:30:57;;;;;;;6.32;2.17;;;;;;;;;;5094804;28;20039;-80
2021/07/14 05:33:22;;;;;;;5.18;2.13;;;;;;;;;;5095510;28;20040;-80
2021/07/14 05:35:48;;;;;;;3.45;1.67;;;;;;;;;;5095000;28;20031;-80
2021/07/14 05:38:19;;;;;;;6.45;1.85;;;;;;;;;;5095265;28;20040;-80
2021/07/14 05:40:47;;;;;;;3.22;1.52;;;;;;;;;;5095175;28;20071;-80
2021/07/14 05:43:12;;;;;;;12.30;2.72;;;;;;;;;;5094773;28;20115;-80
2021/07/14 05:45:37;;;;;;;4.00;1.60;;;;;;;;;;5094765;28;20063;-82
2021/07/14 05:48:04;;;;;;;7.20;1.75;;;;;;;;;;5092891;28;20036;-82
2021/07/14 05:50:29;;;;;;;5.38;1.98;;;;;;;;;;5095122;28;20398;-82
2021/07/14 05:52:55;;;;;;;4.78;1.58;;;;;;;;;;5095318;28;20407;-82
2021/07/14 05:55:20;;;;;;;3.17;1.50;;;;;;;;;;5095515;27;20114;-83
2021/07/14 05:57:45;;;;;;;4.53;1.60;;;;;;;;;;5115607;28;20496;-83
2021/07/14 06:00:11;;;;;;;5.72;1.50;;;;;;;;;;5115179;28;20066;-84
2021/07/14 06:02:37;;;;;;;2.97;1.55;;;;;;;;;;5115657;28;20042;-84
2021/07/14 06:05:04;;;;;;;7.43;2.13;;;;;;;;;;5113997;28;20059;-84
2021/07/14 06:07:30;;;;;;;5.28;1.40;;;;;;;;;;5114038;28;20031;-86
2021/07/14 06:09:56;;;;;;;6.90;1.98;;;;;;;;;;5115312;28;20068;-83
2021/07/14 06:12:21;;;;;;;5.55;1.75;;;;;;;;;;5096401;28;20126;-82
2021/07/14 06:14:49;;;;;;;5.13;1.70;;;;;;;;;;5113270;28;20058;-83
2021/07/14 06:17:15;;;;;;;4.22;1.75;;;;;;;;;;5115011;28;20102;-83
2021/07/14 06:19:41;;;;;;;2.55;1.85;;;;;;;;;;5113036;28;20031;-83
2021/07/14 06:22:06;;;;;;;5.85;1.92;;;;;;;;;;5113151;28;20401;-84
2021/07/14 06:24:31;;;;;;;2.28;1.60;;;;;;;;;;5114119;28;20047;-84
2021/07/14 06:26:57;;;;;;;1.45;1.35;;;;;;;;;;5100322;27;20023;-84
2021/07/14 06:29:22;;;;;;;3.25;1.30;;;;;;;;;;5134565;27;20031;-84
2021/07/14 06:31:49;;;;;;;4.30;1.42;;;;;;;;;;5116327;27;20031;-84
2021/07/14 06:34:15;;;;;;;3.35;1.60;;;;;;;;;;5134817;27;20434;-84
2021/07/14 06:36:40;;;;;;;2.00;1.40;;;;;;;;;;5133503;27;20038;-84
2021/07/14 06:39:06;;;;;;;2.42;1.33;;;;;;;;;;5134839;27;20404;-82
2021/07/14 06:41:31;;;;;;;4.40;1.50;;;;;;;;;;5115375;27;20143;-84
2021/07/14 06:43:59;;;;;;;5.55;1.35;;;;;;;;;;5123053;27;20462;-82
2021/07/14 06:46:25;;;;;;;2.33;1.70;;;;;;;;;;5112932;28;20038;-82
2021/07/14 06:48:52;;;;;;;4.53;1.38;;;;;;;;;;5114267;28;20189;-82
2021/07/14 06:51:17;;;;;;;2.60;1.05;;;;;;;;;;5114422;28;20028;-79
2021/07/14 06:53:43;;;;;;;2.72;1.83;;;;;;;;;;5114634;28;20040;-80
2021/07/14 06:56:08;;;;;;;3.45;1.20;;;;;;;;;;5114786;28;20042;-80
2021/07/14 06:58:39;;;;;;;1.52;0.90;;;;;;;;;;5113059;28;20478;-83
2021/07/14 07:01:04;;;;;;;2.60;0.90;;;;;;;;;;5114476;28;20036;-82
2021/07/14 07:03:30;;;;;;;2.80;1.20;;;;;;;;;;5114307;28;20088;-82
2021/07/14 07:05:55;;;;;;;4.70;1.00;;;;;;;;;;5113844;28;20111;-85
2021/07/14 07:08:21;;;;;;;1.75;0.85;;;;;;;;;;5119148;28;20034;-84
2021/07/14 07:10:47;;;;;;;3.40;1.85;;;;;;;;;;5116262;28;20480;-88
2021/07/14 07:13:16;;;;;;;7.18;1.85;;;;;;;;;;5112775;28;20486;-87
2021/07/14 07:15:50;;;;;;;4.30;1.17;;;;;;;;;;5096894;28;20054;-85
2021/07/14 07:18:16;;;;;;;1.58;0.85;;;;;;;;;;5115187;28;20043;-83
2021/07/14 07:20:42;;;;;;;3.05;1.13;;;;;;;;;;5115629;28;20036;-83
2021/07/14 07:23:10;;;;;;;0.90;0.90;;;;;;;;;;5097845;28;20043;-84
2021/07/14 07:25:37;;;;;;;1.10;0.90;;;;;;;;;;5095983;28;20152;-86
2021/07/14 07:28:03;;;;;;;1.70;1.20;;;;;;;;;;5112239;28;20505;-86
2021/07/14 07:30:30;;;;;;;2.20;0.90;;;;;;;;;;5095050;28;20024;-87
2021/07/14 07:32:55;;;;;;;5.20;1.00;;;;;;;;;;5112418;28;20040;-83
2021/07/14 07:35:21;;;;;;;1.60;0.90;;;;;;;;;;5099112;28;20031;-85
2021/07/14 07:37:46;;;;;;;3.60;0.90;;;;;;;;;;5132478;28;20031;-86
2021/07/14 07:40:13;;;;;;;3.20;0.90;;;;;;;;;;5115308;28;20039;-86
2021/07/14 07:42:40;;;;;;;1.70;0.80;;;;;;;;;;5115358;28;20027;-87
2021/07/14 07:45:07;;;;;;;5.88;0.63;;;;;;;;;;5115225;28;20447;-86
2021/07/14 07:47:33;;;;;;;2.95;0.90;;;;;;;;;;5132320;28;20500;-87
2021/07/14 07:49:59;;;;;;;3.08;0.70;;;;;;;;;;5132272;28;20035;-88
2021/07/14 07:52:25;;;;;;;2.45;0.95;;;;;;;;;;5133710;27;20023;-88
2021/07/14 07:54:55;;;;;;;1.05;0.70;;;;;;;;;;5104178;28;20054;-88
2021/07/14 07:57:21;;;;;;;1.58;0.80;;;;;;;;;;5078517;28;20184;-88
2021/07/14 07:59:48;;;;;;;0.60;0.50;;;;;;;;;;5078445;28;20045;-87
2021/07/14 08:02:14;;;;;;;1.42;0.55;;;;;;;;;;5078500;28;20536;-87
2021/07/14 08:04:39;;;;;;;1.70;0.55;;;;;;;;;;5094950;28;20052;-86
2021/07/14 08:07:06;;;;;;;0.50;0.50;;;;;;;;;;5095036;28;20036;-87
2021/07/14 08:09:31;;;;;;;0.63;0.63;;;;;;;;;;5094815;28;20028;-87
2021/07/14 08:11:57;;;;;;;1.08;0.75;;;;;;;;;;5096119;28;20093;-86
2021/07/14 08:14:22;;;;;;;0.57;0.45;;;;;;;;;;5094942;28;20075;-88
2021/07/14 08:16:48;;;;;;;0.77;0.50;;;;;;;;;;5094841;28;20036;-87
2021/07/14 08:19:19;;;;;;;1.10;0.55;;;;;;;;;;5077745;28;20032;-88
2021/07/14 08:21:45;;;;;;;3.08;0.47;;;;;;;;;;5094835;28;20127;-86
2021/07/14 08:24:10;;;;;;;0.88;0.73;;;;;;;;;;5101572;28;20055;-85
2021/07/14 08:26:36;;;;;;;0.90;0.60;;;;;;;;;;5114816;28;20035;-85
2021/07/14 08:29:02;;;;;;;0.40;0.40;;;;;;;;;;5114999;28;20031;-85
2021/07/14 08:31:27;;;;;;;1.13;0.55;;;;;;;;;;5097612;28;20042;-86
2021/07/14 08:33:53;;;;;;;0.40;0.40;;;;;;;;;;5115219;28;20035;-86
2021/07/14 08:36:18;;;;;;;0.80;0.60;;;;;;;;;;5115060;28;20024;-83
2021/07/14 08:38:44;;;;;;;0.90;0.55;;;;;;;;;;5114921;28;20032;-81
2021/07/14 08:41:10;;;;;;;0.43;0.43;;;;;;;;;;5116132;28;20038;-82
2021/07/14 08:43:41;;;;;;;0.80;0.40;;;;;;;;;;5114806;28;20038;-82
2021/07/14 08:46:07;;;;;;;0.52;0.40;;;;;;;;;;5116033;28;20506;-83
2021/07/14 08:48:33;;;;;;;0.32;0.32;;;;;;;;;;5115985;28;20039;-82
2021/07/14 08:50:59;;;;;;;0.75;0.60;;;;;;;;;;5100936;28;20027;-84
2021/07/14 08:53:26;;;;;;;1.60;0.50;;;;;;;;;;5122058;28;20088;-84
2021/07/14 08:55:54;;;;;;;0.55;0.47;;;;;;;;;;5120693;28;20028;-84
2021/07/14 08:58:23;;;;;;;0.30;0.30;;;;;;;;;;5135024;27;20409;-84
2021/07/14 09:00:51;;;;;;;2.13;0.47;;;;;;;;;;5122869;27;20035;-84
2021/07/14 09:03:17;;;;;;;0.77;0.35;;;;;;;;;;5139207;27;20035;-84
2021/07/14 09:05:43;;;;;;;0.55;0.35;;;;;;;;;;5141837;27;20047;-84
2021/07/14 09:08:09;;;;;;;1.08;0.40;;;;;;;;;;5142311;27;20037;-84
2021/07/14 09:10:35;;;;;;;0.20;0.20;;;;;;;;;;5142268;27;20039;-84
2021/07/14 09:13:02;;;;;;;0.20;0.20;;;;;;;;;;5122772;27;20045;-84
2021/07/14 09:15:31;;;;;;;3.20;0.40;;;;;;;;;;5141527;27;20088;-84
2021/07/14 09:18:01;;;;;;;1.13;0.50;;;;;;;;;;5141174;27;20064;-84
2021/07/14 09:20:30;;;;;;;0.43;0.43;;;;;;;;;;5123898;27;20044;-83
2021/07/14 09:23:02;;;;;;;3.90;0.50;;;;;;;;;;5118743;28;20114;-83
2021/07/14 09:25:28;;;;;;;0.40;0.20;;;;;;;;;;5099693;28;20038;-83
2021/07/14 09:27:55;;;;;;;1.08;0.40;;;;;;;;;;5098638;28;20028;-82
2021/07/14 09:30:23;;;;;;;0.45;0.25;;;;;;;;;;5093917;28;20028;-84
2021/07/14 09:32:56;;;;;;;0.88;0.20;;;;;;;;;;5093906;28;20032;-83
2021/07/14 09:35:28;;;;;;;1.90;0.13;;;;;;;;;;5095151;28;20058;-83
2021/07/14 09:37:56;;;;;;;0.22;0.20;;;;;;;;;;5095092;28;20032;-83
2021/07/14 09:40:22;;;;;;;1.17;0.30;;;;;;;;;;5095163;28;20032;-83
2021/07/14 09:42:56;;;;;;;0.70;0.30;;;;;;;;;;5093311;28;20036;-82
2021/07/14 09:45:56;;;;;;;1.75;0.30;;;;;;;;;;5094668;28;20079;-83
2021/07/14 09:48:25;;;;;;;0.77;0.75;;;;;;;;;;5093454;28;20039;-83
2021/07/14 09:50:59;;;;;;;4.82;1.15;;;;;;;;;;5095662;28;20081;-83
2021/07/14 09:53:27;;;;;;;5.00;1.40;;;;;;;;;;5097769;28;20032;-83
2021/07/14 09:55:58;;;;;;;3.58;0.55;;;;;;;;;;5113991;27;20110;-83
2021/07/14 09:58:29;;;;;;;0.38;0.22;;;;;;;;;;5118719;28;20032;-83
2021/07/14 10:00:57;;;;;;;0.57;0.20;;;;;;;;;;5117565;28;20118;-84
2021/07/14 10:03:33;;;;;;;0.90;0.32;;;;;;;;;;5117270;28;20047;-83
2021/07/14 10:06:11;;;;;;;0.35;0.28;;;;;;;;;;5118206;28;20074;-83
2021/07/14 10:09:03;;;;;;;0.82;0.20;;;;;;;;;;5117585;28;20110;-83
2021/07/14 10:11:29;;;;;;;1.38;0.15;;;;;;;;;;5114027;28;20052;-83
2021/07/14 10:14:03;;;;;;;0.63;0.30;;;;;;;;;;5117939;28;20048;-83
2021/07/14 10:16:38;;;;;;;0.95;0.40;;;;;;;;;;5099078;28;20092;-83
2021/07/14 10:19:14;;;;;;;0.73;0.28;;;;;;;;;;5118239;28;20475;-84
2021/07/14 10:21:39;;;;;;;;;;;;;;;;;;5116452;28;20027;-83
2021/07/14 10:24:06;;;;;;;0.10;0.10;;;;;;;;;;5115041;27;19976;-83
2021/07/14 10:26:34;;;;;;;0.95;0.28;;;;;;;;;;5113113;28;20058;-83
2021/07/14 10:29:00;;;;;;;0.40;0.28;;;;;;;;;;5098516;28;20067;-83
2021/07/14 10:31:26;;;;;;;3.03;0.95;;;;;;;;;;5114246;28;20065;-83
2021/07/14 10:33:53;;;;;;;1.90;0.50;;;;;;;;;;5112838;28;20062;-83
2021/07/14 10:36:23;;;;;;;0.68;0.40;;;;;;;;;;5112938;28;20032;-85
2021/07/14 10:38:51;;;;;;;1.92;0.63;;;;;;;;;;5121485;28;20047;-83
2021/07/14 10:41:17;;;;;;;0.63;0.35;;;;;;;;;;5122256;28;20028;-84
2021/07/14 10:43:47;;;;;;;0.25;0.25;;;;;;;;;;5120309;28;20039;-84
2021/07/14 10:46:12;;;;;;;5.15;0.47;;;;;;;;;;5119736;28;20039;-84
2021/07/14 10:48:40;;;;;;;0.88;0.50;;;;;;;;;;5118161;28;20095;-84
2021/07/14 10:51:06;;;;;;;1.90;0.57;;;;;;;;;;5118521;28;20482;-85
2021/07/14 10:53:32;;;;;;;0.32;0.32;;;;;;;;;;5119183;28;20097;-83
2021/07/14 10:55:59;;;;;;;2.45;0.50;;;;;;;;;;5117633;28;20035;-83
2021/07/14 10:58:28;;;;;;;1.40;0.30;;;;;;;;;;5117983;28;20031;-83
2021/07/14 11:00:54;;;;;;;1.02;0.43;;;;;;;;;;5118231;28;20053;-84
2021/07/14 11:03:38;;;;;;;1.27;0.50;;;;;;;;;;5117507;28;20122;-85
2021/07/14 11:06:05;;;;;;;1.75;0.20;;;;;;;;;;5118504;28;20058;-83
2021/07/14 11:08:47;;;;;;;0.70;0.57;;;;;;;;;;5116872;28;20038;-83
2021/07/14 11:11:23;;;;;;;0.70;0.40;;;;;;;;;;5116161;28;20047;-83
2021/07/14 11:14:09;;;;;;;2.40;0.50;;;;;;;;;;5116439;28;20394;-84
2021/07/14 11:16:36;;;;;;;0.32;0.32;;;;;;;;;;5117211;28;20567;-83
2021/07/14 11:19:14;;;;;;;1.23;0.47;;;;;;;;;;5117359;28;20042;-83
2021/07/14 11:21:58;;;;;;;0.70;0.60;;;;;;;;;;5116183;28;20096;-83
2021/07/14 11:24:36;;;;;;;5.72;0.63;;;;;;;;;;5098490;28;20405;-83
2021/07/14 11:27:27;;;;;;;0.60;0.47;;;;;;;;;;5115820;28;20114;-83
2021/07/14 11:30:04;;;;;;;0.73;0.50;;;;;;;;;;5121301;28;20036;-83
2021/07/14 11:32:33;;;;;;;1.38;0.60;;;;;;;;;;5120280;28;20394;-83
2021/07/14 11:35:03;;;;;;;0.32;0.32;;;;;;;;;;5112654;27;20422;-83
2021/07/14 11:37:34;;;;;;;0.32;0.32;;;;;;;;;;5098608;28;20498;-83
2021/07/14 11:40:18;;;;;;;0.75;0.60;;;;;;;;;;5098514;28;20085;-83
2021/07/14 11:42:47;;;;;;;1.75;0.55;;;;;;;;;;5099297;28;20410;-85
2021/07/14 11:45:13;;;;;;;2.45;0.63;;;;;;;;;;5098056;28;20082;-83
2021/07/14 11:47:38;;;;;;;1.48;0.80;;;;;;;;;;5097928;28;20036;-83
2021/07/14 11:50:05;;;;;;;0.60;0.60;;;;;;;;;;5098896;28;20023;-83
2021/07/14 11:52:44;;;;;;;1.17;0.90;;;;;;;;;;5097966;28;20075;-83
2021/07/14 11:55:24;;;;;;;2.05;0.80;;;;;;;;;;5129248;27;20043;-84
2021/07/14 11:57:51;;;;;;;1.67;0.90;;;;;;;;;;5138442;27;20130;-83
2021/07/14 12:00:28;;;;;;;0.60;0.60;;;;;;;;;;5139882;27;20035;-83
2021/07/14 12:02:58;;;;;;;1.20;1.02;;;;;;;;;;5139839;27;20027;-83
2021/07/14 12:05:35;;;;;;;1.70;0.90;;;;;;;;;;5139224;27;20122;-83
2021/07/14 12:08:11;;;;;;;0.85;0.85;;;;;;;;;;5139486;27;20062;-84
2021/07/14 12:10:38;;;;;;;1.50;1.40;;;;;;;;;;5120845;27;20041;-83
2021/07/14 12:13:07;;;;;;;3.22;1.10;;;;;;;;;;5139164;27;20506;-84
2021/07/14 12:15:54;;;;;;;0.73;0.73;;;;;;;;;;5139450;27;20031;-83
2021/07/14 12:18:19;;;;;;;1.52;0.93;;;;;;;;;;5137771;27;20043;-83
2021/07/14 12:20:49;;;;;;;1.30;1.00;;;;;;;;;;5138813;27;20406;-83
2021/07/14 12:23:15;;;;;;;2.15;1.40;;;;;;;;;;5138620;27;20031;-83
2021/07/14 12:25:40;;;;;;;1.38;1.25;;;;;;;;;;5085079;28;20161;-83
2021/07/14 12:28:13;;;;;;;2.33;1.45;;;;;;;;;;5097157;28;20031;-84
2021/07/14 12:30:40;;;;;;;1.40;1.30;;;;;;;;;;5095232;28;20140;-83
2021/07/14 12:33:08;;;;;;;2.30;1.38;;;;;;;;;;5097288;28;20039;-83
2021/07/14 12:35:36;;;;;;;1.33;1.20;;;;;;;;;;5095358;28;20047;-81
2021/07/14 12:38:12;;;;;;;2.15;1.33;;;;;;;;;;5096473;28;20066;-82
2021/07/14 12:40:40;;;;;;;8.90;1.17;;;;;;;;;;5096737;28;20043;-81
2021/07/14 12:43:25;;;;;;;1.50;1.25;;;;;;;;;;5097414;28;20028;-81
2021/07/14 12:45:53;;;;;;;2.35;1.50;;;;;;;;;;5097341;28;20403;-81
2021/07/14 12:48:24;;;;;;;1.35;1.20;;;;;;;;;;5096580;28;20043;-81
2021/07/14 12:50:54;;;;;;;2.88;1.42;;;;;;;;;;5097119;28;20039;-81
2021/07/14 12:53:20;;;;;;;3.97;1.25;;;;;;;;;;5096385;28;20040;-81
2021/07/14 12:55:46;;;;;;;2.95;1.10;;;;;;;;;;5110737;28;20038;-81
2021/07/14 12:58:18;;;;;;;1.20;0.88;;;;;;;;;;5116448;28;20059;-81
2021/07/14 13:00:48;;;;;;;1.15;1.10;;;;;;;;;;5115898;27;20401;-81
2021/07/14 13:03:19;;;;;;;1.30;1.20;;;;;;;;;;5116279;28;20036;-81
2021/07/14 13:05:45;;;;;;;2.45;1.60;;;;;;;;;;5116281;28;20062;-81
2021/07/14 13:08:14;;;;;;;2.03;1.10;;;;;;;;;;5116131;28;20088;-81
2021/07/14 13:10:40;;;;;;;2.53;1.20;;;;;;;;;;5116317;28;20038;-81
2021/07/14 13:13:14;;;;;;;3.38;1.40;;;;;;;;;;5114624;28;20032;-81
2021/07/14 13:15:41;;;;;;;4.85;1.00;;;;;;;;;;5115650;28;20051;-81
2021/07/14 13:18:08;;;;;;;6.88;1.30;;;;;;;;;;5116010;28;20041;-81
2021/07/14 13:20:50;;;;;;;3.47;1.17;;;;;;;;;;5115773;28;20496;-81
2021/07/14 13:23:24;;;;;;;1.35;1.25;;;;;;;;;;5115705;28;20039;-81
2021/07/14 13:25:51;;;;;;;4.68;2.75;;;;;;;;;;5115120;28;20444;-81
2021/07/14 13:28:19;;;;;;;3.28;1.40;;;;;;;;;;5115429;28;20107;-81
2021/07/14 13:30:50;;;;;;;1.25;1.05;;;;;;;;;;5115494;28;20059;-81
2021/07/14 13:33:17;;;;;;;1.35;1.05;;;;;;;;;;5115454;28;20035;-81
2021/07/14 13:35:47;;;;;;;1.58;1.10;;;;;;;;;;5115412;28;20051;-81
2021/07/14 13:38:37;;;;;;;2.17;1.10;;;;;;;;;;5114486;28;20042;-81
2021/07/14 13:41:02;;;;;;;1.20;1.10;;;;;;;;;;5115439;28;20383;-81
2021/07/14 13:44:00;;;;;;;1.08;0.98;;;;;;;;;;5114563;28;20084;-81
2021/07/14 13:46:26;;;;;;;3.65;1.40;;;;;;;;;;5114289;28;20040;-81
2021/07/14 13:48:58;;;;;;;3.47;1.10;;;;;;;;;;5115544;28;20475;-81
2021/07/14 13:51:29;;;;;;;3.17;1.10;;;;;;;;;;5114573;28;20486;-81
2021/07/14 13:53:54;;;;;;;2.58;1.02;;;;;;;;;;5098415;27;20039;-81
2021/07/14 13:56:29;;;;;;;1.10;1.00;;;;;;;;;;5094210;28;20034;-81
2021/07/14 13:58:55;;;;;;;0.95;0.93;;;;;;;;;;5094681;28;20042;-81
2021/07/14 14:01:24;;;;;;;1.00;0.80;;;;;;;;;;5095021;28;20039;-81
2021/07/14 14:03:59;;;;;;;4.30;1.23;;;;;;;;;;5094698;28;20538;-81
2021/07/14 14:06:25;;;;;;;2.70;1.00;;;;;;;;;;5094714;28;20063;-82
2021/07/14 14:08:52;;;;;;;1.88;1.20;;;;;;;;;;5119338;28;20067;-82
2021/07/14 14:11:17;;;;;;;1.75;1.23;;;;;;;;;;5121754;28;20035;-82
2021/07/14 14:13:43;;;;;;;0.80;0.70;;;;;;;;;;5118652;28;20542;-82
2021/07/14 14:16:08;;;;;;;0.52;0.52;;;;;;;;;;5118757;28;20047;-82
2021/07/14 14:18:34;;;;;;;0.85;0.63;;;;;;;;;;5118123;28;20038;-81
2021/07/14 14:21:03;;;;;;;1.48;0.80;;;;;;;;;;5118690;28;20054;-81
2021/07/14 14:23:29;;;;;;;3.40;0.80;;;;;;;;;;5118344;28;20045;-82
2021/07/14 14:25:58;;;;;;;0.63;0.63;;;;;;;;;;5117982;28;20039;-82
2021/07/14 14:28:24;;;;;;;1.35;0.80;;;;;;;;;;5118361;28;20070;-81
2021/07/14 14:30:53;;;;;;;5.10;0.90;;;;;;;;;;5118319;28;20398;-81
2021/07/14 14:33:19;;;;;;;0.70;0.70;;;;;;;;;;5118059;28;20031;-81
2021/07/14 14:35:45;;;;;;;0.70;0.70;;;;;;;;;;5117609;28;20027;-82
2021/07/14 14:38:13;;;;;;;1.38;0.70;;;;;;;;;;5118120;28;20466;-81
2021/07/14 14:40:43;;;;;;;0.88;0.60;;;;;;;;;;5116983;28;20087;-81
2021/07/14 14:43:09;;;;;;;1.25;1.00;;;;;;;;;;5116643;28;20047;-82
2021/07/14 14:45:35;;;;;;;0.95;0.80;;;;;;;;;;5116370;28;20023;-81
2021/07/14 14:48:00;;;;;;;5.20;1.02;;;;;;;;;;5117494;28;20394;-81
2021/07/14 14:50:26;;;;;;;0.82;0.73;;;;;;;;;;5116965;28;20114;-81
2021/07/14 14:52:52;;;;;;;2.28;1.02;;;;;;;;;;5116984;28;20104;-81
2021/07/14 14:55:19;;;;;;;3.38;0.65;;;;;;;;;;5118087;28;20036;-82
2021/07/14 14:57:45;;;;;;;0.85;0.80;;;;;;;;;;5116686;28;20038;-81
2021/07/14 15:00:13;;;;;;;1.52;0.73;;;;;;;;;;5116789;28;20036;-83